createdAt,value
2022-10-17T00:01:00.931Z,99165.55
2022-10-17T00:03:34.749Z,99168.39
2022-10-17T00:06:12.140Z,99168.47
2022-10-17T00:08:42.056Z,99164.44
2022-10-17T00:11:20.986Z,99163.97
2022-10-17T00:13:50.489Z,99163.52
2022-10-17T00:16:29.654Z,99165.15
2022-10-17T00:18:57.594Z,99169.38
2022-10-17T00:21:26.242Z,99171.92
2022-10-17T00:23:54.639Z,99174.14
2022-10-17T00:26:23.126Z,99171.51
2022-10-17T00:28:52.622Z,99173.01
2022-10-17T00:31:22.273Z,99171.70
2022-10-17T00:33:51.627Z,99170.59
2022-10-17T00:36:23.380Z,99169.98
2022-10-17T00:38:55.949Z,99162.45
2022-10-17T00:41:31.976Z,99165.08
2022-10-17T00:44:06.634Z,99163.00
2022-10-17T00:46:38.984Z,99170.25
2022-10-17T00:49:12.522Z,99169.98
2022-10-17T00:51:40.356Z,99165.36
2022-10-17T00:54:09.655Z,99165.05
2022-10-17T00:56:38.440Z,99162.58
2022-10-17T00:59:10.951Z,99169.86
2022-10-17T01:01:41.653Z,99172.44
2022-10-17T01:04:09.951Z,99176.06
2022-10-17T01:06:40.496Z,99174.84
2022-10-17T01:09:08.507Z,99173.21
2022-10-17T01:11:52.394Z,99167.94
2022-10-17T01:14:39.034Z,99167.86
2022-10-17T01:17:35.360Z,99169.63
2022-10-17T01:20:23.254Z,99166.11
2022-10-17T01:23:10.794Z,99169.23
2022-10-17T01:26:16.186Z,99174.65
2022-10-17T01:29:16.474Z,99174.35
2022-10-17T01:31:50.644Z,99181.65
2022-10-17T01:34:32.582Z,99183.15
2022-10-17T01:37:20.402Z,99186.16
2022-10-17T01:40:04.950Z,99191.65
2022-10-17T01:42:59.502Z,99192.28
2022-10-17T01:45:53.995Z,99191.83
2022-10-17T01:48:30.920Z,99193.14
2022-10-17T01:51:06.041Z,99193.75
2022-10-17T01:53:39.620Z,99195.06
2022-10-17T01:56:10.199Z,99196.19
2022-10-17T01:58:44.265Z,99201.98
2022-10-17T02:01:13.394Z,99208.83
2022-10-17T02:03:44.704Z,99210.23
2022-10-17T02:06:12.536Z,99211.65
2022-10-17T02:08:51.159Z,99211.15
2022-10-17T02:11:23.964Z,99209.86
2022-10-17T02:14:13.786Z,99206.84
2022-10-17T02:17:00.102Z,99209.14
2022-10-17T02:19:46.727Z,99211.63
2022-10-17T02:22:33.427Z,99219.46
2022-10-17T02:25:07.857Z,99222.42
2022-10-17T02:27:47.949Z,99224.45
2022-10-17T02:30:42.247Z,99224.54
2022-10-17T02:33:35.546Z,99224.16
2022-10-17T02:36:09.811Z,99228.84
2022-10-17T02:38:39.481Z,99227.92
2022-10-17T02:41:11.852Z,99231.10
2022-10-17T02:43:40.596Z,99231.91
2022-10-17T02:46:08.528Z,99233.58
2022-10-17T02:48:44.247Z,99239.08
2022-10-17T02:51:29.874Z,99236.09
2022-10-17T02:54:17.516Z,99237.37
2022-10-17T02:57:09.782Z,99240.20
2022-10-17T02:59:41.542Z,99241.27
2022-10-17T03:02:09.458Z,99239.71
2022-10-17T03:04:38.406Z,99239.02
2022-10-17T03:07:06.327Z,99242.99
2022-10-17T03:09:34.242Z,99242.67
2022-10-17T03:12:02.103Z,99246.18
2022-10-17T03:14:30.451Z,99249.33
2022-10-17T03:16:58.289Z,99245.08
2022-10-17T03:19:26.936Z,99244.61
2022-10-17T03:21:56.527Z,99249.45
2022-10-17T03:24:24.477Z,99247.40
2022-10-17T03:26:52.381Z,99249.31
2022-10-17T03:29:20.363Z,99255.70
2022-10-17T03:31:48.359Z,99255.54
2022-10-17T03:34:18.789Z,99253.31
2022-10-17T03:36:46.998Z,99254.73
2022-10-17T03:39:15.007Z,99254.92
2022-10-17T03:41:43.084Z,99257.73
2022-10-17T03:44:11.005Z,99258.82
2022-10-17T03:46:39.235Z,99261.27
2022-10-17T03:49:09.504Z,99260.20
2022-10-17T03:51:37.696Z,99261.45
2022-10-17T03:54:09.335Z,99265.64
2022-10-17T03:56:38.030Z,99265.95
2022-10-17T03:59:13.517Z,99265.61
2022-10-17T04:01:42.192Z,99268.69
2022-10-17T04:04:10.815Z,99272.31
2022-10-17T04:06:38.797Z,99275.05
2022-10-17T04:09:07.527Z,99278.76
2022-10-17T04:11:58.153Z,99278.21
2022-10-17T04:14:26.074Z,99277.73
2022-10-17T04:16:54.165Z,99275.48
2022-10-17T04:19:22.289Z,99279.45
2022-10-17T04:21:50.632Z,99279.78
2022-10-17T04:24:18.686Z,99275.12
2022-10-17T04:26:58.540Z,99279.57
2022-10-17T04:29:28.941Z,99277.14
2022-10-17T04:32:05.542Z,99284.10
2022-10-17T04:34:41.745Z,99282.11
2022-10-17T04:37:09.867Z,99285.14
2022-10-17T04:39:37.873Z,99287.59
2022-10-17T04:42:06.328Z,99291.41
2022-10-17T04:44:35.677Z,99292.29
2022-10-17T04:47:03.800Z,99292.66
2022-10-17T04:49:31.852Z,99294.44
2022-10-17T04:52:06.955Z,99295.69
2022-10-17T04:54:40.769Z,99295.05
2022-10-17T04:57:10.590Z,99296.16
2022-10-17T04:59:39.884Z,99301.52
2022-10-17T05:02:33.948Z,99301.89
2022-10-17T05:05:02.927Z,99302.96
2022-10-17T05:07:30.895Z,99307.09
2022-10-17T05:10:11.436Z,99309.86
2022-10-17T05:12:41.007Z,99310.52
2022-10-17T05:15:09.595Z,99312.59
2022-10-17T05:17:37.611Z,99314.15
2022-10-17T05:20:06.902Z,99320.17
2022-10-17T05:22:38.246Z,99321.55
2022-10-17T05:25:09.580Z,99321.54
2022-10-17T05:27:38.265Z,99322.06
2022-10-17T05:30:07.520Z,99324.41
2022-10-17T05:32:36.518Z,99329.52
2022-10-17T05:35:05.054Z,99333.25
2022-10-17T05:37:33.182Z,99335.64
2022-10-17T05:40:01.785Z,99339.27
2022-10-17T05:42:31.166Z,99339.96
2022-10-17T05:44:59.628Z,99346.70
2022-10-17T05:47:28.013Z,99347.89
2022-10-17T05:49:56.061Z,99346.67
2022-10-17T05:52:28.690Z,99349.63
2022-10-17T05:55:08.415Z,99354.54
2022-10-17T05:57:36.471Z,99362.91
2022-10-17T06:00:08.724Z,99365.20
2022-10-17T06:02:46.060Z,99366.80
2022-10-17T06:05:16.032Z,99372.81
2022-10-17T06:07:44.785Z,99375.29
2022-10-17T06:10:16.389Z,99379.11
2022-10-17T06:12:44.499Z,99378.06
2022-10-17T06:15:13.286Z,99379.24
2022-10-17T06:17:44.192Z,99385.08
2022-10-17T06:20:12.293Z,99389.31
2022-10-17T06:22:40.187Z,99391.13
2022-10-17T06:25:13.802Z,99393.39
2022-10-17T06:27:42.489Z,99394.55
2022-10-17T06:30:11.630Z,99398.00
2022-10-17T06:32:39.600Z,99397.11
2022-10-17T06:35:08.003Z,99397.28
2022-10-17T06:37:38.103Z,99399.20
2022-10-17T06:40:12.213Z,99403.67
2022-10-17T06:42:41.161Z,99408.42
2022-10-17T06:45:29.347Z,99410.92
2022-10-17T06:48:18.949Z,99410.27
2022-10-17T06:51:11.401Z,99411.52
2022-10-17T06:53:49.754Z,99418.27
2022-10-17T06:56:30.748Z,99417.39
2022-10-17T06:59:15.790Z,99416.52
2022-10-17T07:01:51.384Z,99418.05
2022-10-17T07:04:19.758Z,99418.09
2022-10-17T07:06:47.703Z,99415.22
2022-10-17T07:09:19.025Z,99415.34
2022-10-17T07:11:47.133Z,99414.98
2022-10-17T07:14:18.400Z,99415.09
2022-10-17T07:16:47.405Z,99416.04
2022-10-17T07:19:19.259Z,99414.20
2022-10-17T07:21:47.278Z,99413.42
2022-10-17T07:24:15.111Z,99410.38
2022-10-17T07:26:47.147Z,99409.41
2022-10-17T07:29:15.722Z,99408.11
2022-10-17T07:31:49.010Z,99405.77
2022-10-17T07:34:16.871Z,99409.15
2022-10-17T07:36:46.187Z,99410.30
2022-10-17T07:39:15.581Z,99413.16
2022-10-17T07:41:43.479Z,99414.44
2022-10-17T07:44:11.698Z,99410.11
2022-10-17T07:46:45.948Z,99408.72
2022-10-17T07:49:14.149Z,99410.81
2022-10-17T07:51:42.454Z,99407.40
2022-10-17T07:54:10.740Z,99409.42
2022-10-17T07:56:38.666Z,99410.16
2022-10-17T07:59:09.186Z,99410.94
2022-10-17T08:01:38.000Z,99411.84
2022-10-17T08:04:05.811Z,99410.76
2022-10-17T08:06:33.824Z,99413.79
2022-10-17T08:09:02.200Z,99411.02
2022-10-17T08:11:30.084Z,99410.30
2022-10-17T08:13:57.964Z,99412.68
2022-10-17T08:16:25.881Z,99411.80
2022-10-17T08:18:54.091Z,99408.27
2022-10-17T08:21:22.447Z,99405.91
2022-10-17T08:23:50.369Z,99406.35
2022-10-17T08:26:20.119Z,99400.09
2022-10-17T08:28:48.701Z,99393.05
2022-10-17T08:31:19.765Z,99391.43
2022-10-17T08:33:49.445Z,99391.36
2022-10-17T08:36:19.006Z,99394.80
2022-10-17T08:38:52.415Z,99393.60
2022-10-17T08:41:39.505Z,99391.95
2022-10-17T08:44:16.174Z,99391.62
2022-10-17T08:46:48.166Z,99392.96
2022-10-17T08:49:37.862Z,99393.55
2022-10-17T08:52:15.346Z,99391.11
2022-10-17T08:54:48.677Z,99389.34
2022-10-17T08:57:18.185Z,99387.36
2022-10-17T08:59:52.106Z,99390.68
2022-10-17T09:02:39.107Z,99390.04
2022-10-17T09:05:31.247Z,99391.10
2022-10-17T09:08:03.307Z,99389.66
2022-10-17T09:10:31.092Z,99395.09
2022-10-17T09:16:18.963Z,99396.59
2022-10-17T09:19:01.208Z,99396.22
2022-10-17T09:21:44.868Z,99400.27
2022-10-17T09:24:33.881Z,99395.45
2022-10-17T09:27:02.928Z,99392.64
2022-10-17T09:29:36.932Z,99394.41
2022-10-17T09:32:20.969Z,99393.13
2022-10-17T09:34:49.003Z,99392.71
2022-10-17T09:37:17.870Z,99393.70
2022-10-17T09:39:46.067Z,99386.73
2022-10-17T09:42:19.433Z,99389.61
2022-10-17T09:44:52.997Z,99390.88
2022-10-17T09:47:45.778Z,99391.55
2022-10-17T09:50:25.428Z,99390.69
2022-10-17T09:52:54.378Z,99397.73
2022-10-17T09:55:45.513Z,99397.18
2022-10-17T09:58:13.429Z,99391.34
2022-10-17T10:00:43.670Z,99386.12
2022-10-17T10:03:17.469Z,99383.92
2022-10-17T10:06:05.126Z,99387.66
2022-10-17T10:08:37.285Z,99380.33
2022-10-17T10:11:11.830Z,99378.70
2022-10-17T10:13:43.228Z,99378.05
2022-10-17T10:16:32.533Z,99375.16
2022-10-17T10:19:00.521Z,99370.72
2022-10-17T10:21:29.334Z,99367.34
2022-10-17T10:24:13.338Z,99366.94
2022-10-17T10:26:45.143Z,99366.52
2022-10-17T10:29:36.760Z,99362.84
2022-10-17T10:32:09.038Z,99358.23
2022-10-17T10:34:39.519Z,99352.13
2022-10-17T10:37:18.452Z,99352.51
2022-10-17T10:39:50.696Z,99352.09
2022-10-17T10:42:31.647Z,99352.06
2022-10-17T10:45:43.346Z,99350.02
2022-10-17T10:48:25.475Z,99347.10
2022-10-17T10:50:58.089Z,99347.77
2022-10-17T10:53:44.708Z,99348.91
2022-10-17T10:56:19.946Z,99346.80
2022-10-17T10:59:00.605Z,99346.98
2022-10-17T11:01:45.952Z,99342.98
2022-10-17T11:04:19.849Z,99339.95
2022-10-17T11:06:50.754Z,99337.17
2022-10-17T11:09:55.920Z,99334.55
2022-10-17T11:12:35.850Z,99335.94
2022-10-17T11:15:09.690Z,99332.04
2022-10-17T11:17:44.027Z,99329.02
2022-10-17T11:20:23.150Z,99324.39
2022-10-17T11:22:58.863Z,99326.20
2022-10-17T11:25:41.091Z,99324.20
2022-10-17T11:28:15.683Z,99324.06
2022-10-17T11:31:03.315Z,99322.84
2022-10-17T11:33:36.784Z,99317.45
2022-10-17T11:36:08.272Z,99316.91
2022-10-17T11:38:47.644Z,99315.67
2022-10-17T11:41:34.680Z,99313.50
2022-10-17T11:44:23.421Z,99310.52
2022-10-17T11:47:11.507Z,99306.83
2022-10-17T11:49:47.281Z,99307.15
2022-10-17T11:53:02.643Z,99308.74
2022-10-17T11:55:32.301Z,99309.25
2022-10-17T11:58:12.425Z,99305.27
2022-10-17T12:00:48.994Z,99304.78
2022-10-17T12:03:23.532Z,99302.61
2022-10-17T12:06:04.853Z,99300.02
2022-10-17T12:08:47.291Z,99296.86
2022-10-17T12:11:23.481Z,99295.73
2022-10-17T12:13:54.598Z,99290.56
2022-10-17T12:16:23.352Z,99288.64
2022-10-17T12:19:19.616Z,99289.13
2022-10-17T12:21:57.968Z,99287.59
2022-10-17T12:24:40.050Z,99290.17
2022-10-17T12:27:38.560Z,99286.93
2022-10-17T12:30:06.958Z,99287.90
2022-10-17T12:33:03.791Z,99285.66
2022-10-17T12:35:25.733Z,99291.23
2022-10-17T12:37:57.317Z,99289.98
2022-10-17T12:40:35.608Z,99284.42
2022-10-17T12:43:15.493Z,99280.69
2022-10-17T12:45:51.963Z,99279.59
2022-10-17T12:49:02.266Z,99275.72
2022-10-17T12:51:35.698Z,99277.29
2022-10-17T12:54:16.116Z,99274.54
2022-10-17T12:56:49.166Z,99275.21
2022-10-17T12:59:21.890Z,99269.90
2022-10-17T13:01:53.613Z,99272.00
2022-10-17T13:04:22.077Z,99274.31
2022-10-17T13:06:54.469Z,99269.61
2022-10-17T13:09:52.209Z,99264.67
2022-10-17T13:12:27.728Z,99266.83
2022-10-17T13:14:56.325Z,99266.60
2022-10-17T13:17:31.223Z,99265.19
2022-10-17T13:19:59.299Z,99268.19
2022-10-17T13:22:33.005Z,99266.71
2022-10-17T13:25:16.022Z,99270.87
2022-10-17T13:27:44.257Z,99270.20
2022-10-17T13:30:32.411Z,99265.94
2022-10-17T13:33:02.318Z,99264.35
2022-10-17T13:35:59.034Z,99270.35
2022-10-17T13:38:28.494Z,99269.74
2022-10-17T13:41:05.930Z,99266.75
2022-10-17T13:43:39.083Z,99265.08
2022-10-17T13:46:32.546Z,99267.48
2022-10-17T13:48:59.370Z,99264.70
2022-10-17T13:51:27.780Z,99263.73
2022-10-17T13:53:56.189Z,99261.58
2022-10-17T13:56:28.784Z,99257.02
2022-10-17T13:59:01.453Z,99259.11
2022-10-17T14:01:30.259Z,99261.10
2022-10-17T14:04:08.861Z,99260.58
2022-10-17T14:06:46.229Z,99261.61
2022-10-17T14:09:29.435Z,99260.22
2022-10-17T14:12:16.619Z,99254.74
2022-10-17T14:15:11.497Z,99251.48
2022-10-17T14:17:39.564Z,99250.07
2022-10-17T14:20:48.241Z,99254.34
2022-10-17T14:23:21.620Z,99254.46
2022-10-17T14:25:46.963Z,99254.55
2022-10-17T14:28:16.989Z,99253.10
2022-10-17T14:30:56.674Z,99253.46
2022-10-17T14:33:30.336Z,99253.66
2022-10-17T14:36:00.805Z,99255.42
2022-10-17T14:38:30.424Z,99259.27
2022-10-17T14:41:42.573Z,99258.75
2022-10-17T14:44:30.955Z,99258.29
2022-10-17T14:47:30.291Z,99258.23
2022-10-17T14:50:04.148Z,99259.77
2022-10-17T14:52:33.441Z,99260.13
2022-10-17T14:55:22.179Z,99255.62
2022-10-17T14:57:50.284Z,99256.30
2022-10-17T15:00:20.394Z,99253.90
2022-10-17T15:02:49.821Z,99254.03
2022-10-17T15:05:19.491Z,99251.30
2022-10-17T15:07:47.332Z,99254.94
2022-10-17T15:10:24.622Z,99258.73
2022-10-17T15:12:59.229Z,99256.42
2022-10-17T15:15:39.212Z,99256.37
2022-10-17T15:18:08.100Z,99261.10
2022-10-17T15:20:36.033Z,99258.70
2022-10-17T15:23:04.599Z,99261.67
2022-10-17T15:25:32.682Z,99263.89
2022-10-17T15:28:00.508Z,99265.27
2022-10-17T15:30:32.527Z,99265.23
2022-10-17T15:33:00.760Z,99262.59
2022-10-17T15:35:29.090Z,99269.95
2022-10-17T15:37:56.977Z,99272.32
2022-10-17T15:40:30.087Z,99275.73
2022-10-17T15:42:58.289Z,99278.77
2022-10-17T15:45:26.214Z,99277.52
2022-10-17T15:47:57.040Z,99278.92
2022-10-17T15:50:24.945Z,99279.70
2022-10-17T15:52:52.838Z,99278.48
2022-10-17T15:55:20.804Z,99278.23
2022-10-17T15:57:49.204Z,99275.61
2022-10-17T16:00:21.004Z,99277.42
2022-10-17T16:02:49.827Z,99277.81
2022-10-17T16:05:25.653Z,99280.56
2022-10-17T16:07:54.172Z,99284.09
2022-10-17T16:10:23.188Z,99290.21
2022-10-17T16:12:51.243Z,99291.44
2022-10-17T16:15:25.011Z,99297.94
2022-10-17T16:17:54.484Z,99300.80
2022-10-17T16:20:23.837Z,99303.73
2022-10-17T16:22:59.683Z,99306.20
2022-10-17T16:25:29.354Z,99306.53
2022-10-17T16:27:59.792Z,99307.05
2022-10-17T16:30:29.671Z,99312.06
2022-10-17T16:32:57.693Z,99313.87
2022-10-17T16:35:31.931Z,99314.92
2022-10-17T16:38:03.225Z,99316.47
2022-10-17T16:40:31.998Z,99316.29
2022-10-17T16:43:00.140Z,99321.03
2022-10-17T16:45:28.088Z,99324.17
2022-10-17T16:47:56.121Z,99322.77
2022-10-17T16:50:24.591Z,99324.25
2022-10-17T16:52:52.567Z,99328.98
2022-10-17T16:55:20.626Z,99328.65
2022-10-17T16:57:49.297Z,99329.04
2022-10-17T17:00:18.068Z,99329.81
2022-10-17T17:02:48.931Z,99330.52
2022-10-17T17:05:16.796Z,99333.51
2022-10-17T17:07:47.424Z,99335.00
2022-10-17T17:10:16.367Z,99337.80
2022-10-17T17:12:44.344Z,99340.12
2022-10-17T17:15:12.207Z,99341.11
2022-10-17T17:17:55.952Z,99343.33
2022-10-17T17:20:24.272Z,99343.35
2022-10-17T17:22:52.428Z,99344.59
2022-10-17T17:25:21.289Z,99345.63
2022-10-17T17:27:49.192Z,99342.33
2022-10-17T17:30:17.221Z,99341.05
2022-10-17T17:32:45.150Z,99341.70
2022-10-17T17:35:13.031Z,99342.13
2022-10-17T17:37:40.920Z,99344.24
2022-10-17T17:40:09.280Z,99345.02
2022-10-17T17:42:37.176Z,99346.23
2022-10-17T17:45:05.683Z,99345.27
2022-10-17T17:47:33.663Z,99346.01
2022-10-17T17:50:03.334Z,99348.61
2022-10-17T17:52:31.507Z,99350.77
2022-10-17T17:54:59.596Z,99349.63
2022-10-17T17:57:29.477Z,99345.97
2022-10-17T17:59:57.455Z,99348.29
2022-10-17T18:02:25.497Z,99348.80
2022-10-17T18:04:53.418Z,99353.82
2022-10-17T18:07:21.377Z,99352.48
2022-10-17T18:09:50.981Z,99354.83
2022-10-17T18:12:18.923Z,99357.11
2022-10-17T18:14:47.736Z,99355.36
2022-10-17T18:17:15.676Z,99358.23
2022-10-17T18:19:43.596Z,99360.05
2022-10-17T18:22:11.583Z,99357.97
2022-10-17T18:24:39.408Z,99359.33
2022-10-17T18:27:07.475Z,99356.14
2022-10-17T18:29:35.488Z,99358.50
2022-10-17T18:32:03.376Z,99357.57
2022-10-17T18:34:31.205Z,99358.33
2022-10-17T18:36:59.996Z,99359.83
2022-10-17T18:39:27.999Z,99361.85
2022-10-17T18:41:55.897Z,99360.15
2022-10-17T18:44:23.904Z,99359.40
2022-10-17T18:46:51.780Z,99357.82
2022-10-17T18:49:20.708Z,99359.00
2022-10-17T18:51:48.958Z,99358.27
2022-10-17T18:54:21.608Z,99361.18
2022-10-17T18:56:52.193Z,99362.95
2022-10-17T18:59:20.799Z,99363.15
2022-10-17T19:01:49.040Z,99364.91
2022-10-17T19:04:16.983Z,99365.71
2022-10-17T19:06:44.906Z,99368.36
2022-10-17T19:09:14.167Z,99365.02
2022-10-17T19:11:42.912Z,99366.51
2022-10-17T19:14:13.492Z,99367.02
2022-10-17T19:16:47.733Z,99366.83
2022-10-17T19:19:21.853Z,99369.66
2022-10-17T19:21:50.235Z,99369.05
2022-10-17T19:24:21.828Z,99367.80
2022-10-17T19:26:53.436Z,99366.66
2022-10-17T19:29:24.470Z,99367.92
2022-10-17T19:31:52.562Z,99366.23
2022-10-17T19:34:20.587Z,99368.30
2022-10-17T19:36:48.856Z,99372.08
2022-10-17T19:39:22.803Z,99376.79
2022-10-17T19:41:50.918Z,99382.27
2022-10-17T19:44:18.934Z,99382.30
2022-10-17T19:46:49.502Z,99383.58
2022-10-17T19:49:17.710Z,99386.88
2022-10-17T19:51:45.899Z,99385.39
2022-10-17T19:54:15.228Z,99390.59
2022-10-17T19:56:43.581Z,99388.91
2022-10-17T19:59:13.896Z,99385.46
2022-10-17T20:01:42.665Z,99389.24
2022-10-17T20:04:12.292Z,99391.05
2022-10-17T20:06:41.319Z,99389.58
2022-10-17T20:09:14.051Z,99386.88
2022-10-17T20:11:44.927Z,99385.52
2022-10-17T20:14:12.851Z,99385.92
2022-10-17T20:16:40.723Z,99384.70
2022-10-17T20:19:11.189Z,99388.02
2022-10-17T20:21:39.950Z,99386.27
2022-10-17T20:24:11.598Z,99391.60
2022-10-17T20:26:40.548Z,99394.42
2022-10-17T20:29:13.211Z,99392.92
2022-10-17T20:31:43.585Z,99391.46
2022-10-17T20:34:13.947Z,99390.53
2022-10-17T20:36:42.123Z,99391.67
2022-10-17T20:39:12.279Z,99389.23
2022-10-17T20:41:40.668Z,99385.97
2022-10-17T20:44:08.828Z,99381.43
2022-10-17T20:46:39.768Z,99382.46
2022-10-17T20:49:18.356Z,99380.33
2022-10-17T20:51:46.647Z,99378.77
2022-10-17T20:54:14.649Z,99377.05
2022-10-17T20:56:42.567Z,99373.98
2022-10-17T20:59:16.589Z,99377.15
2022-10-17T21:01:45.462Z,99376.84
2022-10-17T21:07:02.317Z,99381.60
2022-10-17T21:09:31.647Z,99378.28
2022-10-17T21:14:36.424Z,99385.73
2022-10-17T21:17:05.407Z,99384.00
2022-10-17T21:19:34.036Z,99383.82
2022-10-17T21:22:01.870Z,99382.06
2022-10-17T21:24:30.993Z,99379.89
2022-10-17T21:26:59.014Z,99381.71
2022-10-17T21:29:26.957Z,99383.06
2022-10-17T21:31:54.848Z,99382.66
2022-10-17T21:34:26.506Z,99384.27
2022-10-17T21:36:54.439Z,99382.91
2022-10-17T21:39:24.829Z,99382.66
2022-10-17T21:41:53.767Z,99381.15
2022-10-17T21:44:25.247Z,99383.04
2022-10-17T21:46:54.296Z,99379.63
2022-10-17T21:49:24.272Z,99378.53
2022-10-17T21:51:52.669Z,99380.27
2022-10-17T21:54:23.045Z,99382.70
2022-10-17T21:56:51.676Z,99385.11
2022-10-17T21:59:19.511Z,99378.85
2022-10-17T22:01:47.435Z,99374.45
2022-10-17T22:04:17.604Z,99372.52
2022-10-17T22:06:47.493Z,99375.52
2022-10-17T22:09:18.577Z,99368.68
2022-10-17T22:11:49.474Z,99365.99
2022-10-17T22:14:19.502Z,99372.25
2022-10-17T22:16:49.002Z,99371.46
2022-10-17T22:19:20.275Z,99374.67
2022-10-17T22:21:48.825Z,99372.85
2022-10-17T22:24:18.561Z,99368.17
2022-10-17T22:26:46.764Z,99369.92
2022-10-17T22:29:14.736Z,99371.55
2022-10-17T22:31:42.868Z,99371.55
2022-10-17T22:34:13.513Z,99372.55
2022-10-17T22:36:42.464Z,99374.80
2022-10-17T22:39:11.123Z,99377.04
2022-10-17T22:41:39.110Z,99376.38
2022-10-17T22:44:07.189Z,99375.38
2022-10-17T22:46:35.996Z,99376.00
2022-10-17T22:49:04.304Z,99379.43
2022-10-17T22:51:32.181Z,99381.86
2022-10-17T22:54:00.042Z,99379.88
2022-10-17T22:56:28.131Z,99379.48
2022-10-17T22:58:56.010Z,99376.52
2022-10-17T23:01:25.836Z,99379.14
2022-10-17T23:03:54.092Z,99376.98
2022-10-17T23:06:23.871Z,99377.08
2022-10-17T23:08:52.360Z,99369.24
2022-10-17T23:11:21.036Z,99364.88
2022-10-17T23:13:49.142Z,99367.07
2022-10-17T23:16:17.299Z,99366.79
2022-10-17T23:18:45.640Z,99365.76
2022-10-17T23:21:13.694Z,99366.73
2022-10-17T23:23:41.796Z,99366.11
2022-10-17T23:26:12.457Z,99362.16
2022-10-17T23:28:41.221Z,99363.08
2022-10-17T23:31:18.376Z,99365.63
2022-10-17T23:33:47.622Z,99364.36
2022-10-17T23:36:18.126Z,99365.13
2022-10-17T23:38:47.670Z,99362.13
2022-10-17T23:41:16.635Z,99359.94
2022-10-17T23:43:44.873Z,99354.14
2022-10-17T23:46:13.108Z,99348.89
2022-10-17T23:48:41.241Z,99347.54
2022-10-17T23:51:10.428Z,99345.16
2022-10-17T23:53:39.201Z,99342.70
2022-10-17T23:56:09.090Z,99344.91
2022-10-17T23:58:38.105Z,99346.23
